Disclaimer

Please do not use the information listed here in-flight or in-navigation, as they are not provided to us by the airports but are provided by volunteers, so they might be outdated.

Search


Regions


Airport information page

Radio informations:
Tower (TWR) - 118.7 MHz
APRON - 121.7 MHz

Airport informations:
Latitude: 22° 36' 44.06" S
Longitude: 017° 04' 49.59" E
Elevation: 5575 feet - 1699 meters
Operating hours: Remarks
Operating agency: Civil government, landing fees and diplomatic clearance may be required
Timezone: UTC+1(+2DT)
Fuel: Jet A1, without icing nhibitor.

100/130 MIL Spec, low lead, aviation gasoline (BLUE)

Runway information:
01/19 - 7381 x 98 feet< - >2250 x 30 meters
09/27 - 3297 x 98 feet< - >1005 x 30 meters

Recent METARs:
FYWE 160800Z 00000KT CAVOK 29/02 Q1026
FYWE 160800Z 00000KT CAVOK 29/02 Q1026
FYWE 160900Z 09007KT 9999 FEW050 29/02 Q1025

Airport on the map: